MMOX/OAX METAR and TAF weather

Enter ICAO airport designator
Station Type Date Time Source
MMOX METAR 2020/10/22 00:51 UTC NOAA

MMOX 220051Z 13010KT 10SM BKN050 22/09 A3011 RMK 8/300


Station Type Date Time Source
MMOX Decoded METAR 2020/10/22 00:51 UTC NOAA

Oaxaca / Xoxocotlan, Mexico (MMOX) 16-58N 096-44W
Oct 21, 2020 - 08:51 PM EDT / 2020.10.22 0051 UTC
Wind: from the SE (130 degrees) at 12 MPH (10 KT):0
Visibility: 10 mile(s):0
Sky conditions: mostly cloudy
Temperature: 71 F (22 C)
Dew Point: 48 F (9 C)
Relative Humidity: 43%
Pressure (altimeter): 30.11 in. Hg (1019 hPa)
ob: MMOX 220051Z 13010KT 10SM BKN050 22/09 A3011 RMK 8/300
cycle: 1

Station Type Date Time Source
MMOX TAF 2020/10/22 06:43 UTC NOAA

TAF MMOX 220237Z 2206/2306 03005KT P6SM SCT030 SCT250
FM221700 03010KT P6SM SCT020 SCT250
FM230200 03005KT P6SM SCT030 SCT250

Example: see airport list